createdAt,value
2022-11-13T00:00:54.723Z,99475.84
2022-11-13T00:03:21.164Z,99473.97
2022-11-13T00:05:47.601Z,99474.19
2022-11-13T00:08:14.393Z,99466.75
2022-11-13T00:10:40.937Z,99469.84
2022-11-13T00:13:07.345Z,99469.66
2022-11-13T00:15:33.781Z,99466.56
2022-11-13T00:18:03.565Z,99468.22
2022-11-13T00:20:30.051Z,99467.59
2022-11-13T00:22:56.515Z,99470.69
2022-11-13T00:25:22.960Z,99465.13
2022-11-13T00:27:49.485Z,99450.69
2022-11-13T00:30:19.567Z,99454.41
2022-11-13T00:32:46.309Z,99456.06
2022-11-13T00:35:12.888Z,99450.06
2022-11-13T00:37:39.293Z,99455.44
2022-11-13T00:40:06.070Z,99454.81
2022-11-13T00:42:32.499Z,99454.59
2022-11-13T00:44:58.902Z,99453.34
2022-11-13T00:47:25.304Z,99450.66
2022-11-13T00:49:51.730Z,99442.19
2022-11-13T00:52:18.129Z,99442.59
2022-11-13T00:54:44.533Z,99445.09
2022-11-13T00:57:10.923Z,99438.13
2022-11-13T00:59:37.375Z,99444.31
2022-11-13T01:02:03.853Z,99437.28
2022-11-13T01:04:30.343Z,99443.47
2022-11-13T01:06:56.798Z,99446.38
2022-11-13T01:09:23.230Z,99450.06
2022-11-13T01:11:49.647Z,99438.53
2022-11-13T01:14:16.096Z,99442.44
2022-11-13T01:16:42.506Z,99450.69
2022-11-13T01:19:09.007Z,99438.13
2022-11-13T01:21:35.462Z,99434.59
2022-11-13T01:24:01.903Z,99426.56
2022-11-13T01:26:30.388Z,99423.09
2022-11-13T01:28:58.495Z,99421.22
2022-11-13T01:31:28.660Z,99419.19
2022-11-13T01:33:55.231Z,99413.63
2022-11-13T01:36:24.886Z,99409.47
2022-11-13T01:38:51.841Z,99403.47
2022-11-13T01:41:30.740Z,99399.56
2022-11-13T01:43:57.624Z,99398.94
2022-11-13T01:46:29.827Z,99401.63
2022-11-13T01:49:10.370Z,99386.41
2022-11-13T01:51:45.322Z,99391.94
2022-11-13T01:54:19.009Z,99385.56
2022-11-13T01:56:45.746Z,99378.75
2022-11-13T01:59:16.028Z,99370.53
2022-11-13T02:01:42.531Z,99371.75
2022-11-13T02:04:09.376Z,99362.91
2022-11-13T02:06:48.321Z,99364.34
2022-11-13T02:09:17.721Z,99361.25
2022-11-13T02:11:44.944Z,99360.41
2022-11-13T02:14:13.979Z,99361.88
2022-11-13T02:16:42.943Z,99353.00
2022-11-13T02:19:40.667Z,99337.19
2022-11-13T02:22:29.003Z,99338.41
2022-11-13T02:24:58.655Z,99338.00
2022-11-13T02:27:36.846Z,99334.28
2022-11-13T02:30:16.293Z,99330.56
2022-11-13T02:32:45.506Z,99333.88
2022-11-13T02:35:14.998Z,99333.03
2022-11-13T02:37:42.196Z,99322.97
2022-11-13T02:40:09.171Z,99318.63
2022-11-13T02:42:35.699Z,99315.34
2022-11-13T02:45:02.194Z,99313.88
2022-11-13T02:47:29.118Z,99313.69
2022-11-13T02:49:55.596Z,99314.31
2022-11-13T02:52:22.172Z,99308.31
2022-11-13T02:54:48.587Z,99304.81
2022-11-13T02:57:14.986Z,99311.84
2022-11-13T02:59:41.728Z,99308.75
2022-11-13T03:02:08.221Z,99305.06
2022-11-13T03:05:04.880Z,99294.53
2022-11-13T03:07:21.150Z,99296.38
2022-11-13T03:09:47.597Z,99302.56
2022-11-13T03:12:14.059Z,99293.69
2022-11-13T03:14:40.469Z,99298.25
2022-11-13T03:17:06.891Z,99298.44
2022-11-13T03:19:33.313Z,99299.28
2022-11-13T03:21:59.737Z,99302.75
2022-11-13T03:24:26.163Z,99302.16
2022-11-13T03:26:52.579Z,99300.09
2022-11-13T03:29:19.002Z,99300.53
2022-11-13T03:31:45.448Z,99296.59
2022-11-13T03:34:11.898Z,99300.50
2022-11-13T03:36:38.529Z,99296.19
2022-11-13T03:39:04.955Z,99291.47
2022-11-13T03:41:31.375Z,99294.72
2022-11-13T03:43:57.758Z,99297.22
2022-11-13T03:46:24.435Z,99302.16
2022-11-13T03:48:50.881Z,99300.72
2022-11-13T03:51:17.335Z,99307.09
2022-11-13T03:53:43.755Z,99304.63
2022-11-13T03:56:10.196Z,99292.06
2022-11-13T03:58:40.152Z,99297.81
2022-11-13T04:01:07.006Z,99287.94
2022-11-13T04:03:33.463Z,99291.25
2022-11-13T04:05:59.862Z,99282.38
2022-11-13T04:08:26.600Z,99279.72
2022-11-13T04:10:53.188Z,99283.00
2022-11-13T04:13:19.584Z,99287.75
2022-11-13T04:15:46.399Z,99278.25
2022-11-13T04:18:12.811Z,99279.72
2022-11-13T04:20:39.239Z,99270.41
2022-11-13T04:23:09.616Z,99268.38
2022-11-13T04:25:36.078Z,99276.22
2022-11-13T04:28:02.487Z,99275.16
2022-11-13T04:30:28.919Z,99266.09
2022-11-13T04:32:55.364Z,99262.59
2022-11-13T04:35:21.982Z,99258.06
2022-11-13T04:37:48.456Z,99258.06
2022-11-13T04:40:15.112Z,99260.94
2022-11-13T04:42:50.444Z,99251.50
2022-11-13T04:45:19.681Z,99249.84
2022-11-13T04:47:46.338Z,99256.03
2022-11-13T04:50:14.263Z,99252.31
2022-11-13T04:52:41.403Z,99248.19
2022-11-13T04:55:08.895Z,99253.13
2022-11-13T04:57:35.825Z,99236.25
2022-11-13T05:00:02.604Z,99238.94
2022-11-13T05:02:29.019Z,99236.66
2022-11-13T05:04:56.086Z,99228.88
2022-11-13T05:07:26.416Z,99227.63
2022-11-13T05:09:53.781Z,99223.94
2022-11-13T05:12:21.092Z,99220.84
2022-11-13T05:14:47.482Z,99214.44
2022-11-13T05:17:14.305Z,99213.63
2022-11-13T05:19:40.694Z,99216.50
2022-11-13T05:22:07.183Z,99215.88
2022-11-13T05:24:33.599Z,99210.09
2022-11-13T05:27:00.000Z,99210.75
2022-11-13T05:29:26.499Z,99205.63
2022-11-13T05:31:52.948Z,99203.78
2022-11-13T05:34:19.419Z,99198.41
2022-11-13T05:36:45.834Z,99194.72
2022-11-13T05:39:12.213Z,99193.66
2022-11-13T05:41:38.675Z,99188.97
2022-11-13T05:44:05.114Z,99191.22
2022-11-13T05:46:31.555Z,99194.72
2022-11-13T05:49:00.879Z,99184.41
2022-11-13T05:51:29.776Z,99187.72
2022-11-13T05:53:56.985Z,99182.38
2022-11-13T05:56:31.856Z,99174.94
2022-11-13T05:58:59.981Z,99171.84
2022-11-13T06:01:44.350Z,99170.59
2022-11-13T06:04:10.793Z,99174.50
2022-11-13T06:06:37.220Z,99176.38
2022-11-13T06:09:05.797Z,99180.28
2022-11-13T06:11:32.701Z,99172.41
2022-11-13T06:13:59.859Z,99172.03
2022-11-13T06:16:34.790Z,99179.88
2022-11-13T06:19:03.455Z,99176.78
2022-11-13T06:21:32.185Z,99171.84
2022-11-13T06:24:00.360Z,99171.41
2022-11-13T06:26:33.183Z,99172.41
2022-11-13T06:29:00.834Z,99170.41
2022-11-13T06:31:30.007Z,99164.66
2022-11-13T06:33:59.016Z,99161.53
2022-11-13T06:36:28.080Z,99159.47
2022-11-13T06:38:54.767Z,99153.94
2022-11-13T06:41:23.368Z,99155.38
2022-11-13T06:43:50.207Z,99158.91
2022-11-13T06:46:24.874Z,99156.03
2022-11-13T06:48:51.578Z,99157.25
2022-11-13T06:51:23.229Z,99154.97
2022-11-13T06:53:50.627Z,99151.06
2022-11-13T06:56:18.458Z,99149.41
2022-11-13T06:58:46.017Z,99147.59
2022-11-13T07:01:18.959Z,99143.66
2022-11-13T07:03:46.239Z,99144.47
2022-11-13T07:06:19.097Z,99151.09
2022-11-13T07:08:47.513Z,99136.28
2022-11-13T07:11:17.007Z,99149.84
2022-11-13T07:13:46.436Z,99145.13
2022-11-13T07:16:17.989Z,99139.34
2022-11-13T07:18:52.091Z,99146.97
2022-11-13T07:21:19.670Z,99138.94
2022-11-13T07:23:49.405Z,99140.81
2022-11-13T07:26:17.931Z,99137.50
2022-11-13T07:28:45.253Z,99139.97
2022-11-13T07:31:13.179Z,99141.59
2022-11-13T07:33:39.602Z,99144.91
2022-11-13T07:36:06.679Z,99135.84
2022-11-13T07:38:33.068Z,99142.00
2022-11-13T07:40:59.955Z,99144.06
2022-11-13T07:43:26.859Z,99144.69
2022-11-13T07:45:56.704Z,99150.66
2022-11-13T07:48:24.018Z,99143.66
2022-11-13T07:50:50.869Z,99136.28
2022-11-13T07:53:18.062Z,99144.28
2022-11-13T07:55:44.526Z,99139.31
2022-11-13T07:58:11.148Z,99141.56
2022-11-13T08:00:37.619Z,99137.22
2022-11-13T08:03:09.862Z,99140.09
2022-11-13T08:05:36.570Z,99134.66
2022-11-13T08:08:03.530Z,99131.97
2022-11-13T08:10:30.122Z,99129.13
2022-11-13T08:13:02.049Z,99122.16
2022-11-13T08:15:29.624Z,99118.47
2022-11-13T08:17:59.157Z,99124.00
2022-11-13T08:20:27.241Z,99121.69
2022-11-13T08:22:57.607Z,99113.47
2022-11-13T08:25:24.392Z,99106.72
2022-11-13T08:27:53.380Z,99105.66
2022-11-13T08:30:20.587Z,99101.56
2022-11-13T08:32:50.169Z,99114.72
2022-11-13T08:35:19.895Z,99106.91
2022-11-13T08:37:47.480Z,99096.59
2022-11-13T08:40:14.253Z,99091.00
2022-11-13T08:42:40.757Z,99094.31
2022-11-13T08:45:08.207Z,99087.66
2022-11-13T08:47:34.807Z,99086.47
2022-11-13T08:50:01.262Z,99087.41
2022-11-13T08:52:27.728Z,99083.16
2022-11-13T08:54:54.646Z,99076.41
2022-11-13T08:57:21.092Z,99080.00
2022-11-13T08:59:47.481Z,99075.47
2022-11-13T09:02:15.664Z,99078.00
2022-11-13T09:04:42.813Z,99074.13
2022-11-13T09:07:09.519Z,99076.16
2022-11-13T09:09:35.971Z,99069.28
2022-11-13T09:12:02.440Z,99073.78
2022-11-13T09:14:28.864Z,99065.06
2022-11-13T09:16:55.258Z,99058.28
2022-11-13T09:19:22.052Z,99069.56
2022-11-13T09:21:48.451Z,99058.94
2022-11-13T09:24:14.923Z,99072.31
2022-11-13T09:26:41.399Z,99072.16
2022-11-13T09:29:07.903Z,99067.75
2022-11-13T09:31:34.420Z,99058.41
2022-11-13T09:34:00.846Z,99049.06
2022-11-13T09:36:27.239Z,99047.81
2022-11-13T09:38:53.629Z,99044.63
2022-11-13T09:41:27.535Z,99050.84
2022-11-13T09:43:59.808Z,99044.69
2022-11-13T09:46:43.912Z,99032.53
2022-11-13T09:49:15.936Z,99031.47
2022-11-13T09:51:52.776Z,99034.00
2022-11-13T09:54:20.653Z,99025.94
2022-11-13T09:57:15.638Z,99029.19
2022-11-13T09:59:53.150Z,99024.81
2022-11-13T10:02:42.612Z,99009.59
2022-11-13T10:05:46.099Z,99019.38
2022-11-13T10:08:18.484Z,99031.22
2022-11-13T10:10:53.700Z,99019.00
2022-11-13T10:13:32.872Z,99003.09
2022-11-13T10:16:14.242Z,99007.72
2022-11-13T10:18:43.272Z,98996.47
2022-11-13T10:21:27.763Z,99003.59
2022-11-13T10:23:56.607Z,99012.31
2022-11-13T10:26:27.847Z,99003.56
2022-11-13T10:29:03.194Z,99003.72
2022-11-13T10:31:29.684Z,99000.13
2022-11-13T10:33:57.356Z,99003.69
2022-11-13T10:37:03.447Z,98997.88
2022-11-13T10:39:30.232Z,99000.41
2022-11-13T10:41:56.814Z,98990.06
2022-11-13T10:44:29.923Z,98991.19
2022-11-13T10:47:26.480Z,98985.59
2022-11-13T10:50:19.467Z,98981.91
2022-11-13T10:52:48.567Z,98969.91
2022-11-13T10:55:26.332Z,98980.75
2022-11-13T10:57:58.467Z,98980.25
2022-11-13T11:00:37.141Z,98977.72
2022-11-13T11:03:03.574Z,98967.34
2022-11-13T11:05:30.121Z,98966.19
2022-11-13T11:07:57.570Z,98954.81
2022-11-13T11:10:36.189Z,98952.59
2022-11-13T11:13:09.848Z,98941.28
2022-11-13T11:15:44.725Z,98934.44
2022-11-13T11:18:25.731Z,98928.34
2022-11-13T11:20:56.651Z,98923.91
2022-11-13T11:23:56.197Z,98918.78
2022-11-13T11:26:42.236Z,98918.78
2022-11-13T11:29:34.098Z,98911.41
2022-11-13T11:32:28.293Z,98916.09
2022-11-13T11:35:12.048Z,98914.16
2022-11-13T11:37:43.948Z,98908.19
2022-11-13T11:40:24.254Z,98918.63
2022-11-13T11:43:18.419Z,98917.59
2022-11-13T11:45:46.809Z,98920.03
2022-11-13T11:48:30.926Z,98911.19
2022-11-13T11:51:28.016Z,98905.78
2022-11-13T11:53:54.407Z,98904.44
2022-11-13T11:56:32.561Z,98899.81
2022-11-13T11:59:06.756Z,98910.09
2022-11-13T12:01:54.248Z,98902.91
2022-11-13T12:04:43.787Z,98899.25
2022-11-13T12:07:29.416Z,98904.91
2022-11-13T12:10:20.834Z,98890.16
2022-11-13T12:13:12.829Z,98888.34
2022-11-13T12:15:52.129Z,98892.63
2022-11-13T12:18:43.100Z,98872.88
2022-11-13T12:21:22.328Z,98877.84
2022-11-13T12:24:16.763Z,98875.31
2022-11-13T12:27:11.226Z,98869.59
2022-11-13T12:30:17.120Z,98851.56
2022-11-13T12:33:02.920Z,98841.59
2022-11-13T12:35:30.239Z,98841.59
2022-11-13T12:38:21.733Z,98850.56
2022-11-13T12:40:54.040Z,98842.75
2022-11-13T12:43:39.196Z,98837.13
2022-11-13T12:46:11.619Z,98836.53
2022-11-13T12:48:41.965Z,98824.38
2022-11-13T12:51:18.510Z,98830.94
2022-11-13T12:53:50.348Z,98826.66
2022-11-13T12:56:30.950Z,98823.28
2022-11-13T12:59:28.627Z,98818.31
2022-11-13T13:01:56.901Z,98813.09
2022-11-13T13:05:08.407Z,98811.75
2022-11-13T13:07:50.067Z,98798.56
2022-11-13T13:10:27.273Z,98797.00
2022-11-13T13:13:22.619Z,98806.16
2022-11-13T13:15:59.681Z,98796.97
2022-11-13T13:18:35.132Z,98794.75
2022-11-13T13:21:06.140Z,98793.31
2022-11-13T13:23:44.394Z,98789.47
2022-11-13T13:26:13.696Z,98791.69
2022-11-13T13:28:43.135Z,98776.22
2022-11-13T13:31:12.288Z,98779.28
2022-11-13T13:33:44.664Z,98768.56
2022-11-13T13:36:38.123Z,98765.19
2022-11-13T13:39:32.040Z,98765.28
2022-11-13T13:42:16.923Z,98778.59
2022-11-13T13:45:23.724Z,98769.69
2022-11-13T13:47:54.761Z,98767.84
2022-11-13T13:50:24.930Z,98762.59
2022-11-13T13:52:55.992Z,98761.66
2022-11-13T13:55:26.470Z,98762.38
2022-11-13T13:57:53.197Z,98763.31
2022-11-13T14:00:21.328Z,98758.47
2022-11-13T14:02:50.587Z,98743.44
2022-11-13T14:05:29.173Z,98762.16
2022-11-13T14:07:55.779Z,98762.00
2022-11-13T14:10:28.298Z,98767.16
2022-11-13T14:12:56.254Z,98771.97
2022-11-13T14:15:28.813Z,98772.97
2022-11-13T14:18:15.089Z,98773.81
2022-11-13T14:20:52.477Z,98787.41
2022-11-13T14:23:28.373Z,98758.72
2022-11-13T14:25:56.677Z,98771.44
2022-11-13T14:28:29.127Z,98773.91
2022-11-13T14:30:59.727Z,98768.53
2022-11-13T14:33:40.743Z,98770.31
2022-11-13T14:36:07.669Z,98774.97
2022-11-13T14:38:36.926Z,98775.53
2022-11-13T14:41:04.471Z,98779.16
2022-11-13T14:43:33.149Z,98777.16
2022-11-13T14:46:05.727Z,98778.94
2022-11-13T14:48:34.388Z,98776.88
2022-11-13T14:51:02.984Z,98773.28
2022-11-13T14:53:37.910Z,98778.81
2022-11-13T14:56:09.206Z,98768.09
2022-11-13T14:58:43.740Z,98768.22
2022-11-13T15:01:18.258Z,98766.84
2022-11-13T15:03:46.545Z,98765.78
2022-11-13T15:06:40.493Z,98760.97
2022-11-13T15:09:11.226Z,98762.00
2022-11-13T15:11:40.257Z,98767.47
2022-11-13T15:14:18.005Z,98762.47
2022-11-13T15:16:46.448Z,98756.88
2022-11-13T15:19:30.005Z,98764.66
2022-11-13T15:24:43.563Z,98754.91
2022-11-13T15:27:16.003Z,98753.63
2022-11-13T15:29:42.789Z,98747.53
2022-11-13T15:32:11.921Z,98754.53
2022-11-13T15:34:38.461Z,98750.06
2022-11-13T15:37:12.939Z,98753.03
2022-11-13T15:39:39.735Z,98749.72
2022-11-13T15:42:12.085Z,98747.66
2022-11-13T15:44:39.054Z,98742.69
2022-11-13T15:47:26.638Z,98745.38
2022-11-13T15:50:12.435Z,98748.00
2022-11-13T15:52:42.820Z,98749.03
2022-11-13T15:55:39.823Z,98747.03
2022-11-13T15:58:14.378Z,98746.28
2022-11-13T16:00:42.847Z,98745.00
2022-11-13T16:03:12.053Z,98729.75
2022-11-13T16:05:38.697Z,98733.84
2022-11-13T16:08:13.404Z,98728.69
2022-11-13T16:10:39.808Z,98728.28
2022-11-13T16:13:06.362Z,98729.69
2022-11-13T16:15:32.777Z,98722.16
2022-11-13T16:18:00.655Z,98726.63
2022-11-13T16:20:27.292Z,98719.56
2022-11-13T16:22:54.951Z,98721.66
2022-11-13T16:25:22.641Z,98720.09
2022-11-13T16:27:49.156Z,98723.69
2022-11-13T16:30:19.796Z,98724.72
2022-11-13T16:32:46.721Z,98728.00
2022-11-13T16:35:17.579Z,98722.22
2022-11-13T16:37:44.230Z,98716.94
2022-11-13T16:40:19.320Z,98722.75
2022-11-13T16:42:45.725Z,98722.47
2022-11-13T16:45:12.145Z,98721.84
2022-11-13T16:47:38.734Z,98729.78
2022-11-13T16:50:12.716Z,98729.06
2022-11-13T16:52:39.198Z,98720.69
2022-11-13T16:55:06.814Z,98718.63
2022-11-13T16:57:33.492Z,98728.13
2022-11-13T16:59:59.924Z,98721.69
2022-11-13T17:02:26.368Z,98719.59
2022-11-13T17:04:56.067Z,98715.66
2022-11-13T17:07:22.646Z,98716.84
2022-11-13T17:09:58.942Z,98714.47
2022-11-13T17:12:35.587Z,98714.72
2022-11-13T17:15:02.013Z,98716.31
2022-11-13T17:17:28.780Z,98712.06
2022-11-13T17:19:55.380Z,98711.47
2022-11-13T17:22:21.841Z,98708.47
2022-11-13T17:24:49.796Z,98708.59
2022-11-13T17:27:17.001Z,98704.81
2022-11-13T17:29:43.451Z,98701.94
2022-11-13T17:32:09.910Z,98709.16
2022-11-13T17:34:36.699Z,98709.28
2022-11-13T17:37:03.154Z,98716.28
2022-11-13T17:39:29.567Z,98711.00
2022-11-13T17:41:55.980Z,98708.91
2022-11-13T17:44:22.449Z,98718.31
2022-11-13T17:46:48.862Z,98714.34
2022-11-13T17:49:16.396Z,98710.84
2022-11-13T17:51:42.869Z,98717.81
2022-11-13T17:54:09.410Z,98715.78
2022-11-13T17:56:37.640Z,98718.31
2022-11-13T17:59:04.458Z,98726.38
2022-11-13T18:01:31.870Z,98716.38
2022-11-13T18:03:58.505Z,98717.84
2022-11-13T18:06:25.292Z,98718.22
2022-11-13T18:08:51.763Z,98719.69
2022-11-13T18:11:24.029Z,98726.22
2022-11-13T18:13:51.260Z,98714.34
2022-11-13T18:16:25.545Z,98707.13
2022-11-13T18:18:55.441Z,98715.16
2022-11-13T18:21:29.084Z,98715.53
2022-11-13T18:24:00.381Z,98710.69
2022-11-13T18:26:28.226Z,98702.53
2022-11-13T18:28:55.382Z,98717.97
2022-11-13T18:31:23.263Z,98712.72
2022-11-13T18:33:50.027Z,98708.22
2022-11-13T18:36:16.831Z,98710.69
2022-11-13T18:38:43.493Z,98718.13
2022-11-13T18:41:15.639Z,98729.63
2022-11-13T18:43:46.903Z,98727.81
2022-11-13T18:46:15.141Z,98730.91
2022-11-13T18:48:42.954Z,98737.91
2022-11-13T18:51:14.908Z,98743.03
2022-11-13T18:53:43.643Z,98731.81
2022-11-13T18:56:17.512Z,98722.75
2022-11-13T18:58:46.319Z,98710.38
2022-11-13T19:01:21.870Z,98706.06
2022-11-13T19:04:16.116Z,98713.31
2022-11-13T19:06:38.098Z,98708.72
2022-11-13T19:09:07.795Z,98720.94
2022-11-13T19:11:34.429Z,98715.97
2022-11-13T19:14:01.006Z,98717.00
2022-11-13T19:16:33.426Z,98719.84
2022-11-13T19:19:05.414Z,98715.53
2022-11-13T19:21:33.829Z,98721.31
2022-11-13T19:24:01.365Z,98724.19
2022-11-13T19:26:28.468Z,98723.13
2022-11-13T19:28:55.455Z,98719.69
2022-11-13T19:31:24.538Z,98722.94
2022-11-13T19:33:58.843Z,98715.78
2022-11-13T19:36:28.032Z,98714.94
2022-11-13T19:38:55.654Z,98709.38
2022-11-13T19:41:22.707Z,98699.31
2022-11-13T19:43:49.173Z,98696.88
2022-11-13T19:46:18.052Z,98694.59
2022-11-13T19:48:46.304Z,98692.97
2022-11-13T19:51:24.235Z,98692.16
2022-11-13T19:53:59.321Z,98693.41
2022-11-13T19:56:28.326Z,98694.41
2022-11-13T19:58:55.521Z,98689.28
2022-11-13T20:01:25.062Z,98687.00
2022-11-13T20:03:59.978Z,98689.97
2022-11-13T20:06:28.299Z,98698.19
2022-11-13T20:08:54.926Z,98695.72
2022-11-13T20:11:21.351Z,98698.19
2022-11-13T20:13:47.782Z,98700.25
2022-11-13T20:16:15.729Z,98702.75
2022-11-13T20:18:43.237Z,98696.63
2022-11-13T20:21:09.831Z,98700.47
2022-11-13T20:23:36.597Z,98686.72
2022-11-13T20:26:05.963Z,98692.47
2022-11-13T20:28:32.726Z,98690.44
2022-11-13T20:31:07.739Z,98688.34
2022-11-13T20:33:34.978Z,98685.50
2022-11-13T20:36:02.321Z,98675.81
2022-11-13T20:38:29.662Z,98677.69
2022-11-13T20:40:56.590Z,98670.88
2022-11-13T20:43:23.607Z,98662.06
2022-11-13T20:45:50.286Z,98654.66
2022-11-13T20:48:16.772Z,98653.44
2022-11-13T20:50:43.172Z,98645.19
2022-11-13T20:53:09.586Z,98639.41
2022-11-13T20:55:36.283Z,98630.81
2022-11-13T20:58:02.968Z,98647.28
2022-11-13T21:00:29.400Z,98652.63
2022-11-13T21:02:55.893Z,98657.53
2022-11-13T21:05:22.337Z,98658.16
2022-11-13T21:07:48.821Z,98663.72
2022-11-13T21:10:15.774Z,98660.78
2022-11-13T21:12:42.230Z,98663.88
2022-11-13T21:15:08.954Z,98670.69
2022-11-13T21:17:35.366Z,98671.53
2022-11-13T21:20:02.826Z,98665.59
2022-11-13T21:22:29.288Z,98662.25
2022-11-13T21:24:55.704Z,98658.38
2022-11-13T21:27:22.110Z,98663.72
2022-11-13T21:29:48.508Z,98663.38
2022-11-13T21:32:14.938Z,98666.00
2022-11-13T21:34:41.346Z,98672.84
2022-11-13T21:37:08.158Z,98664.63
2022-11-13T21:39:34.652Z,98657.25
2022-11-13T21:42:01.071Z,98655.34
2022-11-13T21:44:27.474Z,98635.47
2022-11-13T21:46:54.176Z,98626.03
2022-11-13T21:49:20.613Z,98630.16
2022-11-13T21:51:47.112Z,98631.13
2022-11-13T21:54:13.649Z,98618.19
2022-11-13T21:56:41.848Z,98614.03
2022-11-13T21:59:08.715Z,98611.81
2022-11-13T22:01:38.464Z,98601.16
2022-11-13T22:04:05.704Z,98597.69
2022-11-13T22:06:36.243Z,98590.69
2022-11-13T22:09:04.674Z,98588.44
2022-11-13T22:11:34.587Z,98589.25
2022-11-13T22:14:01.421Z,98583.09
2022-11-13T22:16:32.094Z,98589.06
2022-11-13T22:19:01.436Z,98591.91
2022-11-13T22:21:28.957Z,98581.22
2022-11-13T22:23:55.884Z,98586.84
2022-11-13T22:26:24.043Z,98584.19
2022-11-13T22:28:51.671Z,98586.63
2022-11-13T22:31:20.606Z,98572.91
2022-11-13T22:33:50.440Z,98574.94
2022-11-13T22:36:21.753Z,98568.16
2022-11-13T22:38:48.593Z,98556.97
2022-11-13T22:41:22.613Z,98557.03
2022-11-13T22:43:54.828Z,98549.50
2022-11-13T22:46:23.870Z,98554.03
2022-11-13T22:48:52.140Z,98542.91
2022-11-13T22:51:22.750Z,98543.97
2022-11-13T22:53:52.156Z,98549.69
2022-11-13T22:56:19.868Z,98544.31
2022-11-13T22:58:46.725Z,98553.34
2022-11-13T23:01:14.478Z,98550.94
2022-11-13T23:03:43.174Z,98554.59
2022-11-13T23:06:10.893Z,98548.88
2022-11-13T23:08:39.014Z,98556.25
2022-11-13T23:11:14.359Z,98553.88
2022-11-13T23:13:42.816Z,98539.44
2022-11-13T23:16:11.519Z,98540.25
2022-11-13T23:18:38.994Z,98531.25
2022-11-13T23:21:06.657Z,98533.53
2022-11-13T23:23:34.281Z,98520.56
2022-11-13T23:26:00.922Z,98514.84
2022-11-13T23:28:28.299Z,98514.41
2022-11-13T23:30:55.455Z,98519.00
2022-11-13T23:33:22.339Z,98509.78
2022-11-13T23:35:49.609Z,98519.03
2022-11-13T23:38:16.247Z,98521.44
2022-11-13T23:40:42.879Z,98509.56
2022-11-13T23:43:09.932Z,98505.66
2022-11-13T23:45:36.343Z,98516.94
2022-11-13T23:48:02.873Z,98501.75
2022-11-13T23:50:29.300Z,98507.03
2022-11-13T23:52:55.824Z,98502.03
2022-11-13T23:55:23.547Z,98500.03
2022-11-13T23:58:01.132Z,98493.44
